sensor_id;sensor_type;location;lat;lon;timestamp;P1;durP1;ratioP1;P2;durP2;ratioP2
49444;SDS011;35323;43.080;-81.378;2022-08-14T00:02:05;1.23;;;1.00;;
49444;SDS011;35323;43.080;-81.378;2022-08-14T00:04:34;1.95;;;1.58;;
49444;SDS011;35323;43.080;-81.378;2022-08-14T00:07:10;1.40;;;1.30;;
49444;SDS011;35323;43.080;-81.378;2022-08-14T00:09:40;1.20;;;1.20;;
49444;SDS011;35323;43.080;-81.378;2022-08-14T00:12:28;1.13;;;1.02;;
49444;SDS011;35323;43.080;-81.378;2022-08-14T00:15:24;2.10;;;1.00;;
49444;SDS011;35323;43.080;-81.378;2022-08-14T00:18:02;6.13;;;1.58;;
49444;SDS011;35323;43.080;-81.378;2022-08-14T00:20:32;1.10;;;0.95;;
49444;SDS011;35323;43.080;-81.378;2022-08-14T00:23:08;4.25;;;1.40;;
49444;SDS011;35323;43.080;-81.378;2022-08-14T00:25:42;1.58;;;1.17;;
49444;SDS011;35323;43.080;-81.378;2022-08-14T00:28:24;1.95;;;1.45;;
49444;SDS011;35323;43.080;-81.378;2022-08-14T00:31:00;2.20;;;1.17;;
49444;SDS011;35323;43.080;-81.378;2022-08-14T00:33:30;1.20;;;1.02;;
49444;SDS011;35323;43.080;-81.378;2022-08-14T00:36:18;3.97;;;1.20;;
49444;SDS011;35323;43.080;-81.378;2022-08-14T00:39:05;1.85;;;1.63;;
49444;SDS011;35323;43.080;-81.378;2022-08-14T00:41:35;1.00;;;0.90;;
49444;SDS011;35323;43.080;-81.378;2022-08-14T00:44:05;1.70;;;1.60;;
49444;SDS011;35323;43.080;-81.378;2022-08-14T00:46:33;1.48;;;1.15;;
49444;SDS011;35323;43.080;-81.378;2022-08-14T00:49:03;1.42;;;1.27;;
49444;SDS011;35323;43.080;-81.378;2022-08-14T00:51:31;5.28;;;1.70;;
49444;SDS011;35323;43.080;-81.378;2022-08-14T00:54:04;1.83;;;1.50;;
49444;SDS011;35323;43.080;-81.378;2022-08-14T00:56:46;3.25;;;1.92;;
49444;SDS011;35323;43.080;-81.378;2022-08-14T00:59:15;2.42;;;1.13;;
49444;SDS011;35323;43.080;-81.378;2022-08-14T01:01:43;1.40;;;1.30;;
49444;SDS011;35323;43.080;-81.378;2022-08-14T01:04:11;3.88;;;1.55;;
49444;SDS011;35323;43.080;-81.378;2022-08-14T01:06:59;1.67;;;1.58;;
49444;SDS011;35323;43.080;-81.378;2022-08-14T01:09:33;3.13;;;2.05;;
49444;SDS011;35323;43.080;-81.378;2022-08-14T01:12:04;2.22;;;1.02;;
49444;SDS011;35323;43.080;-81.378;2022-08-14T01:14:33;2.33;;;1.70;;
49444;SDS011;35323;43.080;-81.378;2022-08-14T01:17:01;2.50;;;1.70;;
49444;SDS011;35323;43.080;-81.378;2022-08-14T01:19:29;1.63;;;1.52;;
49444;SDS011;35323;43.080;-81.378;2022-08-14T01:22:19;2.85;;;1.95;;
49444;SDS011;35323;43.080;-81.378;2022-08-14T01:24:52;1.73;;;1.55;;
49444;SDS011;35323;43.080;-81.378;2022-08-14T01:27:20;2.03;;;1.20;;
49444;SDS011;35323;43.080;-81.378;2022-08-14T01:29:51;1.63;;;1.52;;
49444;SDS011;35323;43.080;-81.378;2022-08-14T01:32:30;2.03;;;1.80;;
49444;SDS011;35323;43.080;-81.378;2022-08-14T01:35:07;2.67;;;1.95;;
49444;SDS011;35323;43.080;-81.378;2022-08-14T01:37:46;3.40;;;2.03;;
49444;SDS011;35323;43.080;-81.378;2022-08-14T01:40:22;4.05;;;3.65;;
49444;SDS011;35323;43.080;-81.378;2022-08-14T01:43:08;4.60;;;2.83;;
49444;SDS011;35323;43.080;-81.378;2022-08-14T01:45:37;3.17;;;1.92;;
49444;SDS011;35323;43.080;-81.378;2022-08-14T01:48:06;6.70;;;1.95;;
49444;SDS011;35323;43.080;-81.378;2022-08-14T01:50:40;2.88;;;2.67;;
49444;SDS011;35323;43.080;-81.378;2022-08-14T01:53:08;3.22;;;2.00;;
49444;SDS011;35323;43.080;-81.378;2022-08-14T01:55:36;2.90;;;1.95;;
49444;SDS011;35323;43.080;-81.378;2022-08-14T01:58:06;2.03;;;1.83;;
49444;SDS011;35323;43.080;-81.378;2022-08-14T02:00:49;2.25;;;1.55;;
49444;SDS011;35323;43.080;-81.378;2022-08-14T02:03:23;2.90;;;2.20;;
49444;SDS011;35323;43.080;-81.378;2022-08-14T02:05:56;3.50;;;2.53;;
49444;SDS011;35323;43.080;-81.378;2022-08-14T02:08:45;1.73;;;1.63;;
49444;SDS011;35323;43.080;-81.378;2022-08-14T02:11:21;3.95;;;1.88;;
49444;SDS011;35323;43.080;-81.378;2022-08-14T02:13:53;1.88;;;1.48;;
49444;SDS011;35323;43.080;-81.378;2022-08-14T02:16:24;2.08;;;1.60;;
49444;SDS011;35323;43.080;-81.378;2022-08-14T02:18:52;2.95;;;1.67;;
49444;SDS011;35323;43.080;-81.378;2022-08-14T02:21:20;2.15;;;1.95;;
49444;SDS011;35323;43.080;-81.378;2022-08-14T02:23:49;2.20;;;1.48;;
49444;SDS011;35323;43.080;-81.378;2022-08-14T02:26:21;3.72;;;1.60;;
49444;SDS011;35323;43.080;-81.378;2022-08-14T02:28:56;2.05;;;1.85;;
49444;SDS011;35323;43.080;-81.378;2022-08-14T02:31:29;3.22;;;1.70;;
49444;SDS011;35323;43.080;-81.378;2022-08-14T02:34:10;3.25;;;2.85;;
49444;SDS011;35323;43.080;-81.378;2022-08-14T02:36:52;2.42;;;1.80;;
49444;SDS011;35323;43.080;-81.378;2022-08-14T02:39:33;3.10;;;2.80;;
49444;SDS011;35323;43.080;-81.378;2022-08-14T02:42:02;3.35;;;2.65;;
49444;SDS011;35323;43.080;-81.378;2022-08-14T02:44:31;1.67;;;1.58;;
49444;SDS011;35323;43.080;-81.378;2022-08-14T02:47:05;3.40;;;2.28;;
49444;SDS011;35323;43.080;-81.378;2022-08-14T02:49:44;3.83;;;2.35;;
49444;SDS011;35323;43.080;-81.378;2022-08-14T02:52:20;5.53;;;1.38;;
49444;SDS011;35323;43.080;-81.378;2022-08-14T02:55:08;3.35;;;2.58;;
49444;SDS011;35323;43.080;-81.378;2022-08-14T02:57:35;1.80;;;1.70;;
49444;SDS011;35323;43.080;-81.378;2022-08-14T03:00:06;1.45;;;1.35;;
49444;SDS011;35323;43.080;-81.378;2022-08-14T03:02:36;3.38;;;2.63;;
49444;SDS011;35323;43.080;-81.378;2022-08-14T03:05:23;2.08;;;1.85;;
49444;SDS011;35323;43.080;-81.378;2022-08-14T03:07:51;2.55;;;1.52;;
49444;SDS011;35323;43.080;-81.378;2022-08-14T03:10:20;3.30;;;2.22;;
49444;SDS011;35323;43.080;-81.378;2022-08-14T03:12:52;1.27;;;1.17;;
49444;SDS011;35323;43.080;-81.378;2022-08-14T03:15:20;2.97;;;2.65;;
49444;SDS011;35323;43.080;-81.378;2022-08-14T03:17:51;2.78;;;2.42;;
49444;SDS011;35323;43.080;-81.378;2022-08-14T03:22:51;2.85;;;2.45;;
49444;SDS011;35323;43.080;-81.378;2022-08-14T03:25:18;4.93;;;2.83;;
49444;SDS011;35323;43.080;-81.378;2022-08-14T03:27:48;4.78;;;2.70;;
49444;SDS011;35323;43.080;-81.378;2022-08-14T03:30:28;2.72;;;2.30;;
49444;SDS011;35323;43.080;-81.378;2022-08-14T03:33:06;3.75;;;2.20;;
49444;SDS011;35323;43.080;-81.378;2022-08-14T03:35:35;3.75;;;2.85;;
49444;SDS011;35323;43.080;-81.378;2022-08-14T03:38:23;2.35;;;2.03;;
49444;SDS011;35323;43.080;-81.378;2022-08-14T03:41:12;2.70;;;2.45;;
49444;SDS011;35323;43.080;-81.378;2022-08-14T03:43:42;2.97;;;2.10;;
49444;SDS011;35323;43.080;-81.378;2022-08-14T03:46:10;2.13;;;1.85;;
49444;SDS011;35323;43.080;-81.378;2022-08-14T03:48:59;2.05;;;1.60;;
49444;SDS011;35323;43.080;-81.378;2022-08-14T03:51:32;8.23;;;3.70;;
49444;SDS011;35323;43.080;-81.378;2022-08-14T03:54:00;2.30;;;2.10;;
49444;SDS011;35323;43.080;-81.378;2022-08-14T03:56:29;2.78;;;2.58;;
49444;SDS011;35323;43.080;-81.378;2022-08-14T03:58:59;3.38;;;3.08;;
49444;SDS011;35323;43.080;-81.378;2022-08-14T04:01:43;4.20;;;2.92;;
49444;SDS011;35323;43.080;-81.378;2022-08-14T04:04:27;2.10;;;1.90;;
49444;SDS011;35323;43.080;-81.378;2022-08-14T04:06:55;2.58;;;1.77;;
49444;SDS011;35323;43.080;-81.378;2022-08-14T04:09:25;3.25;;;2.72;;
49444;SDS011;35323;43.080;-81.378;2022-08-14T04:11:53;3.15;;;2.35;;
49444;SDS011;35323;43.080;-81.378;2022-08-14T04:14:24;2.15;;;1.95;;
49444;SDS011;35323;43.080;-81.378;2022-08-14T04:16:52;2.55;;;2.30;;
49444;SDS011;35323;43.080;-81.378;2022-08-14T04:19:20;3.40;;;1.90;;
49444;SDS011;35323;43.080;-81.378;2022-08-14T04:21:53;3.10;;;2.38;;
49444;SDS011;35323;43.080;-81.378;2022-08-14T04:24:30;5.20;;;2.88;;
49444;SDS011;35323;43.080;-81.378;2022-08-14T04:27:05;3.28;;;2.47;;
49444;SDS011;35323;43.080;-81.378;2022-08-14T04:29:36;3.05;;;2.60;;
49444;SDS011;35323;43.080;-81.378;2022-08-14T04:32:05;2.95;;;2.42;;
49444;SDS011;35323;43.080;-81.378;2022-08-14T04:34:54;3.08;;;2.78;;
49444;SDS011;35323;43.080;-81.378;2022-08-14T04:37:22;3.08;;;2.72;;
49444;SDS011;35323;43.080;-81.378;2022-08-14T04:40:11;2.25;;;1.70;;
49444;SDS011;35323;43.080;-81.378;2022-08-14T04:42:57;3.50;;;2.03;;
49444;SDS011;35323;43.080;-81.378;2022-08-14T04:45:46;4.05;;;2.83;;
49444;SDS011;35323;43.080;-81.378;2022-08-14T04:48:17;3.30;;;2.83;;
49444;SDS011;35323;43.080;-81.378;2022-08-14T04:51:08;5.43;;;2.70;;
49444;SDS011;35323;43.080;-81.378;2022-08-14T04:53:36;2.78;;;2.45;;
49444;SDS011;35323;43.080;-81.378;2022-08-14T04:58:58;3.25;;;2.42;;
49444;SDS011;35323;43.080;-81.378;2022-08-14T05:01:29;4.72;;;3.58;;
49444;SDS011;35323;43.080;-81.378;2022-08-14T05:04:06;4.20;;;2.78;;
49444;SDS011;35323;43.080;-81.378;2022-08-14T05:06:41;3.47;;;2.97;;
49444;SDS011;35323;43.080;-81.378;2022-08-14T05:09:09;5.05;;;3.00;;
49444;SDS011;35323;43.080;-81.378;2022-08-14T05:11:40;4.22;;;2.40;;
49444;SDS011;35323;43.080;-81.378;2022-08-14T05:14:09;3.85;;;2.30;;
49444;SDS011;35323;43.080;-81.378;2022-08-14T05:16:57;3.67;;;3.13;;
49444;SDS011;35323;43.080;-81.378;2022-08-14T05:19:28;5.18;;;3.50;;
49444;SDS011;35323;43.080;-81.378;2022-08-14T05:21:58;3.47;;;3.13;;
49444;SDS011;35323;43.080;-81.378;2022-08-14T05:24:47;3.58;;;3.28;;
49444;SDS011;35323;43.080;-81.378;2022-08-14T05:27:17;3.00;;;2.70;;
49444;SDS011;35323;43.080;-81.378;2022-08-14T05:29:50;5.20;;;3.30;;
49444;SDS011;35323;43.080;-81.378;2022-08-14T05:32:17;6.57;;;3.70;;
49444;SDS011;35323;43.080;-81.378;2022-08-14T05:34:45;4.30;;;2.42;;
49444;SDS011;35323;43.080;-81.378;2022-08-14T05:37:13;3.60;;;3.30;;
49444;SDS011;35323;43.080;-81.378;2022-08-14T05:39:41;4.63;;;3.15;;
49444;SDS011;35323;43.080;-81.378;2022-08-14T05:42:08;4.13;;;2.70;;
49444;SDS011;35323;43.080;-81.378;2022-08-14T05:44:52;3.70;;;2.97;;
49444;SDS011;35323;43.080;-81.378;2022-08-14T05:47:21;3.20;;;2.90;;
49444;SDS011;35323;43.080;-81.378;2022-08-14T05:49:49;3.17;;;2.60;;
49444;SDS011;35323;43.080;-81.378;2022-08-14T05:52:17;4.25;;;3.95;;
49444;SDS011;35323;43.080;-81.378;2022-08-14T05:55:08;4.10;;;3.30;;
49444;SDS011;35323;43.080;-81.378;2022-08-14T05:57:57;5.32;;;3.78;;
49444;SDS011;35323;43.080;-81.378;2022-08-14T06:00:27;4.28;;;3.88;;
49444;SDS011;35323;43.080;-81.378;2022-08-14T06:03:05;5.43;;;3.55;;
49444;SDS011;35323;43.080;-81.378;2022-08-14T06:05:34;2.80;;;2.03;;
49444;SDS011;35323;43.080;-81.378;2022-08-14T06:08:04;5.07;;;4.30;;
49444;SDS011;35323;43.080;-81.378;2022-08-14T06:10:48;5.00;;;3.35;;
49444;SDS011;35323;43.080;-81.378;2022-08-14T06:13:16;4.53;;;3.00;;
49444;SDS011;35323;43.080;-81.378;2022-08-14T06:15:45;3.97;;;3.17;;
49444;SDS011;35323;43.080;-81.378;2022-08-14T06:18:13;3.20;;;2.90;;
49444;SDS011;35323;43.080;-81.378;2022-08-14T06:20:43;5.18;;;2.75;;
49444;SDS011;35323;43.080;-81.378;2022-08-14T06:23:11;3.92;;;3.53;;
49444;SDS011;35323;43.080;-81.378;2022-08-14T06:25:40;4.85;;;2.90;;
49444;SDS011;35323;43.080;-81.378;2022-08-14T06:28:22;6.07;;;4.15;;
49444;SDS011;35323;43.080;-81.378;2022-08-14T06:30:54;4.72;;;4.32;;
49444;SDS011;35323;43.080;-81.378;2022-08-14T06:33:23;3.55;;;2.97;;
49444;SDS011;35323;43.080;-81.378;2022-08-14T06:36:10;4.28;;;3.22;;
49444;SDS011;35323;43.080;-81.378;2022-08-14T06:38:43;4.38;;;2.70;;
49444;SDS011;35323;43.080;-81.378;2022-08-14T06:41:15;3.33;;;2.58;;
49444;SDS011;35323;43.080;-81.378;2022-08-14T06:43:46;3.15;;;2.40;;
49444;SDS011;35323;43.080;-81.378;2022-08-14T06:46:14;4.15;;;3.00;;
49444;SDS011;35323;43.080;-81.378;2022-08-14T06:48:58;4.53;;;2.65;;
49444;SDS011;35323;43.080;-81.378;2022-08-14T06:51:25;4.10;;;3.30;;
49444;SDS011;35323;43.080;-81.378;2022-08-14T06:54:10;3.70;;;2.65;;
49444;SDS011;35323;43.080;-81.378;2022-08-14T06:56:38;4.22;;;2.78;;
49444;SDS011;35323;43.080;-81.378;2022-08-14T06:59:12;4.97;;;3.53;;
49444;SDS011;35323;43.080;-81.378;2022-08-14T07:01:45;2.80;;;2.60;;
49444;SDS011;35323;43.080;-81.378;2022-08-14T07:04:39;3.42;;;2.58;;
49444;SDS011;35323;43.080;-81.378;2022-08-14T07:07:25;3.67;;;3.15;;
49444;SDS011;35323;43.080;-81.378;2022-08-14T07:09:54;3.33;;;2.55;;
49444;SDS011;35323;43.080;-81.378;2022-08-14T07:12:21;6.53;;;3.63;;
49444;SDS011;35323;43.080;-81.378;2022-08-14T07:15:09;5.18;;;2.50;;
49444;SDS011;35323;43.080;-81.378;2022-08-14T07:17:46;6.35;;;3.50;;
49444;SDS011;35323;43.080;-81.378;2022-08-14T07:20:19;3.65;;;3.15;;
49444;SDS011;35323;43.080;-81.378;2022-08-14T07:22:58;2.90;;;2.38;;
49444;SDS011;35323;43.080;-81.378;2022-08-14T07:25:33;3.92;;;2.97;;
49444;SDS011;35323;43.080;-81.378;2022-08-14T07:28:22;2.22;;;2.03;;
49444;SDS011;35323;43.080;-81.378;2022-08-14T07:30:51;6.13;;;2.72;;
49444;SDS011;35323;43.080;-81.378;2022-08-14T07:33:35;2.72;;;2.22;;
49444;SDS011;35323;43.080;-81.378;2022-08-14T07:36:08;3.65;;;2.88;;
49444;SDS011;35323;43.080;-81.378;2022-08-14T07:38:56;3.30;;;3.00;;
49444;SDS011;35323;43.080;-81.378;2022-08-14T07:41:24;3.30;;;2.45;;
49444;SDS011;35323;43.080;-81.378;2022-08-14T07:44:01;3.67;;;3.05;;
49444;SDS011;35323;43.080;-81.378;2022-08-14T07:46:49;4.70;;;2.78;;
49444;SDS011;35323;43.080;-81.378;2022-08-14T07:49:16;3.00;;;2.78;;
49444;SDS011;35323;43.080;-81.378;2022-08-14T07:51:45;3.28;;;2.97;;
49444;SDS011;35323;43.080;-81.378;2022-08-14T07:54:16;3.67;;;2.90;;
49444;SDS011;35323;43.080;-81.378;2022-08-14T07:56:58;4.10;;;2.63;;
49444;SDS011;35323;43.080;-81.378;2022-08-14T07:59:37;2.88;;;2.58;;
49444;SDS011;35323;43.080;-81.378;2022-08-14T08:02:12;4.47;;;3.37;;
49444;SDS011;35323;43.080;-81.378;2022-08-14T08:04:46;5.18;;;2.47;;
49444;SDS011;35323;43.080;-81.378;2022-08-14T08:07:15;3.50;;;3.20;;
49444;SDS011;35323;43.080;-81.378;2022-08-14T08:09:49;4.68;;;2.90;;
49444;SDS011;35323;43.080;-81.378;2022-08-14T08:12:19;3.50;;;2.42;;
49444;SDS011;35323;43.080;-81.378;2022-08-14T08:14:55;3.28;;;2.33;;
49444;SDS011;35323;43.080;-81.378;2022-08-14T08:17:33;3.53;;;3.22;;
49444;SDS011;35323;43.080;-81.378;2022-08-14T08:20:14;4.68;;;3.03;;
49444;SDS011;35323;43.080;-81.378;2022-08-14T08:22:46;10.13;;;3.47;;
49444;SDS011;35323;43.080;-81.378;2022-08-14T08:25:21;4.22;;;3.22;;
49444;SDS011;35323;43.080;-81.378;2022-08-14T08:28:00;3.13;;;2.85;;
49444;SDS011;35323;43.080;-81.378;2022-08-14T08:30:35;4.82;;;3.35;;
49444;SDS011;35323;43.080;-81.378;2022-08-14T08:33:14;3.70;;;2.95;;
49444;SDS011;35323;43.080;-81.378;2022-08-14T08:35:44;5.13;;;3.70;;
49444;SDS011;35323;43.080;-81.378;2022-08-14T08:38:21;4.13;;;3.15;;
49444;SDS011;35323;43.080;-81.378;2022-08-14T08:41:09;5.90;;;3.80;;
49444;SDS011;35323;43.080;-81.378;2022-08-14T08:43:37;5.47;;;2.10;;
49444;SDS011;35323;43.080;-81.378;2022-08-14T08:46:13;4.47;;;3.03;;
49444;SDS011;35323;43.080;-81.378;2022-08-14T08:48:53;3.97;;;2.85;;
49444;SDS011;35323;43.080;-81.378;2022-08-14T08:51:27;2.55;;;2.33;;
49444;SDS011;35323;43.080;-81.378;2022-08-14T08:54:03;4.68;;;3.45;;
49444;SDS011;35323;43.080;-81.378;2022-08-14T08:56:32;6.05;;;4.95;;
49444;SDS011;35323;43.080;-81.378;2022-08-14T09:02:06;3.05;;;2.28;;
49444;SDS011;35323;43.080;-81.378;2022-08-14T09:04:36;2.95;;;2.15;;
49444;SDS011;35323;43.080;-81.378;2022-08-14T09:07:27;3.95;;;3.55;;
49444;SDS011;35323;43.080;-81.378;2022-08-14T09:09:56;4.15;;;3.17;;
49444;SDS011;35323;43.080;-81.378;2022-08-14T09:12:27;2.78;;;2.47;;
49444;SDS011;35323;43.080;-81.378;2022-08-14T09:15:01;4.13;;;3.00;;
49444;SDS011;35323;43.080;-81.378;2022-08-14T09:17:38;3.13;;;2.55;;
49444;SDS011;35323;43.080;-81.378;2022-08-14T09:20:08;3.05;;;2.33;;
49444;SDS011;35323;43.080;-81.378;2022-08-14T09:22:38;3.85;;;3.13;;
49444;SDS011;35323;43.080;-81.378;2022-08-14T09:25:13;4.35;;;2.67;;
49444;SDS011;35323;43.080;-81.378;2022-08-14T09:27:41;3.88;;;2.47;;
49444;SDS011;35323;43.080;-81.378;2022-08-14T09:30:09;4.55;;;2.83;;
49444;SDS011;35323;43.080;-81.378;2022-08-14T09:41:32;3.05;;;2.03;;
49444;SDS011;35323;43.080;-81.378;2022-08-14T09:47:11;3.40;;;2.53;;
49444;SDS011;35323;43.080;-81.378;2022-08-14T09:49:40;2.97;;;2.67;;
49444;SDS011;35323;43.080;-81.378;2022-08-14T09:52:19;3.58;;;2.88;;
49444;SDS011;35323;43.080;-81.378;2022-08-14T09:54:59;2.58;;;1.85;;
49444;SDS011;35323;43.080;-81.378;2022-08-14T09:57:29;2.63;;;2.25;;
49444;SDS011;35323;43.080;-81.378;2022-08-14T09:59:57;4.72;;;3.20;;
49444;SDS011;35323;43.080;-81.378;2022-08-14T10:02:26;2.22;;;2.03;;
49444;SDS011;35323;43.080;-81.378;2022-08-14T10:05:04;4.68;;;2.80;;
49444;SDS011;35323;43.080;-81.378;2022-08-14T10:07:52;1.88;;;1.75;;
49444;SDS011;35323;43.080;-81.378;2022-08-14T10:10:37;2.83;;;2.20;;
49444;SDS011;35323;43.080;-81.378;2022-08-14T10:13:18;3.38;;;2.80;;
49444;SDS011;35323;43.080;-81.378;2022-08-14T10:15:49;5.07;;;3.13;;
49444;SDS011;35323;43.080;-81.378;2022-08-14T10:18:17;2.60;;;2.22;;
49444;SDS011;35323;43.080;-81.378;2022-08-14T10:20:54;3.45;;;2.22;;
49444;SDS011;35323;43.080;-81.378;2022-08-14T10:23:25;2.35;;;2.15;;
49444;SDS011;35323;43.080;-81.378;2022-08-14T10:26:03;2.67;;;2.47;;
49444;SDS011;35323;43.080;-81.378;2022-08-14T10:28:38;2.33;;;1.77;;
49444;SDS011;35323;43.080;-81.378;2022-08-14T10:31:28;3.92;;;2.33;;
49444;SDS011;35323;43.080;-81.378;2022-08-14T10:34:12;3.95;;;2.20;;
49444;SDS011;35323;43.080;-81.378;2022-08-14T10:36:41;2.83;;;1.98;;
49444;SDS011;35323;43.080;-81.378;2022-08-14T10:39:18;2.38;;;2.17;;
49444;SDS011;35323;43.080;-81.378;2022-08-14T10:41:46;2.13;;;1.95;;
49444;SDS011;35323;43.080;-81.378;2022-08-14T10:44:21;2.80;;;1.63;;
49444;SDS011;35323;43.080;-81.378;2022-08-14T10:49:39;2.75;;;1.80;;
49444;SDS011;35323;43.080;-81.378;2022-08-14T10:52:22;4.53;;;2.10;;
49444;SDS011;35323;43.080;-81.378;2022-08-14T10:54:51;2.65;;;2.45;;
49444;SDS011;35323;43.080;-81.378;2022-08-14T10:57:22;6.95;;;2.30;;
49444;SDS011;35323;43.080;-81.378;2022-08-14T10:59:55;4.22;;;2.88;;
49444;SDS011;35323;43.080;-81.378;2022-08-14T11:02:32;2.03;;;1.38;;
49444;SDS011;35323;43.080;-81.378;2022-08-14T11:05:20;2.63;;;2.42;;
49444;SDS011;35323;43.080;-81.378;2022-08-14T11:10:26;2.47;;;1.63;;
49444;SDS011;35323;43.080;-81.378;2022-08-14T11:13:08;2.70;;;2.08;;
49444;SDS011;35323;43.080;-81.378;2022-08-14T11:15:36;1.70;;;1.60;;
49444;SDS011;35323;43.080;-81.378;2022-08-14T11:18:06;2.30;;;1.48;;
49444;SDS011;35323;43.080;-81.378;2022-08-14T11:20:50;1.63;;;1.52;;
49444;SDS011;35323;43.080;-81.378;2022-08-14T11:23:24;1.50;;;1.40;;
49444;SDS011;35323;43.080;-81.378;2022-08-14T11:26:06;2.05;;;1.83;;
49444;SDS011;35323;43.080;-81.378;2022-08-14T11:28:36;3.05;;;2.70;;
49444;SDS011;35323;43.080;-81.378;2022-08-14T11:31:21;1.20;;;1.10;;
49444;SDS011;35323;43.080;-81.378;2022-08-14T11:34:04;1.25;;;1.02;;
49444;SDS011;35323;43.080;-81.378;2022-08-14T11:36:51;1.52;;;1.17;;
49444;SDS011;35323;43.080;-81.378;2022-08-14T11:39:39;3.58;;;1.80;;
49444;SDS011;35323;43.080;-81.378;2022-08-14T11:42:18;3.00;;;2.20;;
49444;SDS011;35323;43.080;-81.378;2022-08-14T11:45:06;2.58;;;0.98;;
49444;SDS011;35323;43.080;-81.378;2022-08-14T11:47:42;1.73;;;1.60;;
49444;SDS011;35323;43.080;-81.378;2022-08-14T11:50:33;1.42;;;1.30;;
49444;SDS011;35323;43.080;-81.378;2022-08-14T11:53:04;1.52;;;1.38;;
49444;SDS011;35323;43.080;-81.378;2022-08-14T11:55:35;2.20;;;1.77;;
49444;SDS011;35323;43.080;-81.378;2022-08-14T11:58:08;2.67;;;1.30;;
49444;SDS011;35323;43.080;-81.378;2022-08-14T12:00:55;1.13;;;1.03;;
49444;SDS011;35323;43.080;-81.378;2022-08-14T12:03:43;1.60;;;1.40;;
49444;SDS011;35323;43.080;-81.378;2022-08-14T12:06:23;5.20;;;1.67;;
49444;SDS011;35323;43.080;-81.378;2022-08-14T12:09:01;1.73;;;1.45;;
49444;SDS011;35323;43.080;-81.378;2022-08-14T12:11:38;2.95;;;1.58;;
49444;SDS011;35323;43.080;-81.378;2022-08-14T12:14:10;1.63;;;1.52;;
49444;SDS011;35323;43.080;-81.378;2022-08-14T12:17:06;2.03;;;1.15;;
49444;SDS011;35323;43.080;-81.378;2022-08-14T12:19:51;1.83;;;1.70;;
49444;SDS011;35323;43.080;-81.378;2022-08-14T12:22:32;1.77;;;1.60;;
49444;SDS011;35323;43.080;-81.378;2022-08-14T12:25:01;1.55;;;1.42;;
49444;SDS011;35323;43.080;-81.378;2022-08-14T12:27:40;1.48;;;1.38;;
49444;SDS011;35323;43.080;-81.378;2022-08-14T12:30:33;1.67;;;1.30;;
49444;SDS011;35323;43.080;-81.378;2022-08-14T12:33:19;1.63;;;1.13;;
49444;SDS011;35323;43.080;-81.378;2022-08-14T12:35:57;1.63;;;1.20;;
49444;SDS011;35323;43.080;-81.378;2022-08-14T12:38:32;2.22;;;1.77;;
49444;SDS011;35323;43.080;-81.378;2022-08-14T12:41:01;1.20;;;1.10;;
49444;SDS011;35323;43.080;-81.378;2022-08-14T12:43:30;1.63;;;1.50;;
49444;SDS011;35323;43.080;-81.378;2022-08-14T12:45:58;7.30;;;2.30;;
49444;SDS011;35323;43.080;-81.378;2022-08-14T12:48:26;1.15;;;1.05;;
49444;SDS011;35323;43.080;-81.378;2022-08-14T12:50:58;2.30;;;1.95;;
49444;SDS011;35323;43.080;-81.378;2022-08-14T12:53:32;3.00;;;2.50;;
49444;SDS011;35323;43.080;-81.378;2022-08-14T12:56:04;1.33;;;1.23;;
49444;SDS011;35323;43.080;-81.378;2022-08-14T12:58:54;2.90;;;1.45;;
49444;SDS011;35323;43.080;-81.378;2022-08-14T13:01:25;1.33;;;1.23;;
49444;SDS011;35323;43.080;-81.378;2022-08-14T13:04:03;1.63;;;1.20;;
49444;SDS011;35323;43.080;-81.378;2022-08-14T13:06:35;1.30;;;1.15;;
49444;SDS011;35323;43.080;-81.378;2022-08-14T13:09:04;2.38;;;1.75;;
49444;SDS011;35323;43.080;-81.378;2022-08-14T13:11:39;1.73;;;1.63;;
49444;SDS011;35323;43.080;-81.378;2022-08-14T13:14:11;1.92;;;1.60;;
49444;SDS011;35323;43.080;-81.378;2022-08-14T13:19:11;3.42;;;2.33;;
49444;SDS011;35323;43.080;-81.378;2022-08-14T13:21:42;1.48;;;1.20;;
49444;SDS011;35323;43.080;-81.378;2022-08-14T13:24:31;4.90;;;1.90;;
49444;SDS011;35323;43.080;-81.378;2022-08-14T13:26:59;2.40;;;1.70;;
49444;SDS011;35323;43.080;-81.378;2022-08-14T13:29:30;2.40;;;2.20;;
49444;SDS011;35323;43.080;-81.378;2022-08-14T13:31:59;1.67;;;1.58;;
49444;SDS011;35323;43.080;-81.378;2022-08-14T13:34:27;1.75;;;1.33;;
49444;SDS011;35323;43.080;-81.378;2022-08-14T13:36:58;2.20;;;2.03;;
49444;SDS011;35323;43.080;-81.378;2022-08-14T13:39:29;3.45;;;1.80;;
49444;SDS011;35323;43.080;-81.378;2022-08-14T13:42:03;2.33;;;1.25;;
49444;SDS011;35323;43.080;-81.378;2022-08-14T13:44:42;2.38;;;2.00;;
49444;SDS011;35323;43.080;-81.378;2022-08-14T13:47:10;8.15;;;2.03;;
49444;SDS011;35323;43.080;-81.378;2022-08-14T13:49:41;2.33;;;2.13;;
49444;SDS011;35323;43.080;-81.378;2022-08-14T13:52:22;2.15;;;1.95;;
49444;SDS011;35323;43.080;-81.378;2022-08-14T13:55:11;2.67;;;2.45;;
49444;SDS011;35323;43.080;-81.378;2022-08-14T13:57:40;3.92;;;3.25;;
49444;SDS011;35323;43.080;-81.378;2022-08-14T14:00:28;4.30;;;2.22;;
49444;SDS011;35323;43.080;-81.378;2022-08-14T14:02:58;2.55;;;1.88;;
49444;SDS011;35323;43.080;-81.378;2022-08-14T14:05:26;2.75;;;1.80;;
49444;SDS011;35323;43.080;-81.378;2022-08-14T14:08:14;5.57;;;2.55;;
49444;SDS011;35323;43.080;-81.378;2022-08-14T14:11:03;4.38;;;2.28;;
49444;SDS011;35323;43.080;-81.378;2022-08-14T14:13:32;1.73;;;1.58;;
49444;SDS011;35323;43.080;-81.378;2022-08-14T14:16:02;2.70;;;1.58;;
49444;SDS011;35323;43.080;-81.378;2022-08-14T14:18:31;2.60;;;1.98;;
49444;SDS011;35323;43.080;-81.378;2022-08-14T14:21:07;1.95;;;1.83;;
49444;SDS011;35323;43.080;-81.378;2022-08-14T14:23:36;1.88;;;1.70;;
49444;SDS011;35323;43.080;-81.378;2022-08-14T14:26:04;4.93;;;2.25;;
49444;SDS011;35323;43.080;-81.378;2022-08-14T14:28:39;3.38;;;2.33;;
49444;SDS011;35323;43.080;-81.378;2022-08-14T14:31:10;1.73;;;1.60;;
49444;SDS011;35323;43.080;-81.378;2022-08-14T14:33:42;2.45;;;1.67;;
49444;SDS011;35323;43.080;-81.378;2022-08-14T14:36:22;2.70;;;2.47;;
49444;SDS011;35323;43.080;-81.378;2022-08-14T14:38:58;3.92;;;2.13;;
49444;SDS011;35323;43.080;-81.378;2022-08-14T14:41:29;3.25;;;2.05;;
49444;SDS011;35323;43.080;-81.378;2022-08-14T14:44:09;3.65;;;2.05;;
49444;SDS011;35323;43.080;-81.378;2022-08-14T14:46:42;1.63;;;1.33;;
49444;SDS011;35323;43.080;-81.378;2022-08-14T14:49:19;3.03;;;1.98;;
49444;SDS011;35323;43.080;-81.378;2022-08-14T14:51:47;2.90;;;1.40;;
49444;SDS011;35323;43.080;-81.378;2022-08-14T14:54:18;3.38;;;1.70;;
49444;SDS011;35323;43.080;-81.378;2022-08-14T14:56:58;3.00;;;2.00;;
49444;SDS011;35323;43.080;-81.378;2022-08-14T14:59:31;1.48;;;1.35;;
49444;SDS011;35323;43.080;-81.378;2022-08-14T15:02:03;1.48;;;1.38;;
49444;SDS011;35323;43.080;-81.378;2022-08-14T15:04:34;1.50;;;1.40;;
49444;SDS011;35323;43.080;-81.378;2022-08-14T15:07:04;1.65;;;1.30;;
49444;SDS011;35323;43.080;-81.378;2022-08-14T15:09:32;2.00;;;1.77;;
49444;SDS011;35323;43.080;-81.378;2022-08-14T15:12:02;1.90;;;1.25;;
49444;SDS011;35323;43.080;-81.378;2022-08-14T15:14:49;1.00;;;0.95;;
49444;SDS011;35323;43.080;-81.378;2022-08-14T15:17:22;3.45;;;1.45;;
49444;SDS011;35323;43.080;-81.378;2022-08-14T15:19:54;1.48;;;1.38;;
49444;SDS011;35323;43.080;-81.378;2022-08-14T15:22:22;1.45;;;1.15;;
49444;SDS011;35323;43.080;-81.378;2022-08-14T15:24:50;1.92;;;1.02;;
49444;SDS011;35323;43.080;-81.378;2022-08-14T15:27:18;1.95;;;1.42;;
49444;SDS011;35323;43.080;-81.378;2022-08-14T15:29:51;3.95;;;1.48;;
49444;SDS011;35323;43.080;-81.378;2022-08-14T15:32:19;1.08;;;0.98;;
49444;SDS011;35323;43.080;-81.378;2022-08-14T15:34:49;1.55;;;1.45;;